Date,TemperatureHighF,TemperatureAvgF,TemperatureLowF,DewpointHighF,DewpointAvgF,DewpointLowF,HumidityHigh,HumidityAvg,HumidityLow,PressureMaxIn,PressureMinIn,WindSpeedMaxMPH,WindSpeedAvgMPH,GustSpeedMaxMPH,PrecipitationSumIn
2013-3-1,76,55,36,22,12,0,32,19,12,30.33,29.82,9,3,13,0.00
2013-3-2,80,60,42,29,20,14,39,23,12,30.25,29.67,7,2,10,0.00
2013-3-3,64,54,43,30,22,16,45,30,19,29.97,29.55,9,3,14,0.00
2013-3-4,72,57,46,29,23,19,40,27,16,29.91,29.45,11,3,15,0.00
2013-3-5,70,55,41,29,22,14,48,29,14,30.00,29.62,11,2,13,0.00
2013-3-6,73,57,41,34,22,14,52,29,13,29.90,29.44,13,4,17,0.00
2013-3-7,72,56,40,32,22,14,49,29,14,29.83,29.45,13,4,26,0.00
2013-3-8,51,42,34,40,33,22,92,73,33,29.74,29.44,16,3,22,1.11
2013-3-9,38,36,34,35,33,31,92,88,85,29.95,29.71,4,1,6,0.54
2013-3-10,66,47,32,41,29,18,95,56,23,30.12,29.71,9,2,12,0.13
2013-3-11,72,53,36,30,24,18,51,35,16,30.15,29.61,7,2,10,0.00
2013-3-12,80,59,39,32,24,17,51,29,12,30.05,29.53,10,3,15,0.00
2013-3-13,83,63,44,32,23,15,43,25,11,30.10,29.62,10,3,13,0.00
2013-3-14,90,68,50,32,23,20,35,20,10,30.05,29.52,13,3,23,0.00
2013-3-15,87,66,50,34,23,16,36,21,11,29.91,29.45,9,3,13,0.00
2013-3-16,82,63,51,36,27,18,41,28,12,29.72,29.23,12,3,22,0.00
2013-3-17,82,62,46,35,23,6,49,27,10,29.70,29.23,20,4,29,0.00
2013-3-18,80,62,45,26,17,4,33,18,12,29.79,29.39,11,3,17,0.00
2013-3-19,80,63,51,34,24,15,38,25,12,29.85,29.47,10,3,16,0.00
2013-3-20,75,60,49,31,23,17,35,24,16,29.88,29.48,13,4,21,0.00
2013-3-21,80,63,48,36,26,14,48,27,11,29.61,29.20,14,4,23,0.00
2013-3-22,77,59,45,30,17,4,29,20,12,29.58,29.19,18,4,27,0.00
2013-3-23,68,54,40,14,7,0,18,15,12,29.82,29.48,16,5,24,0.00
2013-3-24,74,55,38,16,8,0,19,15,11,29.93,29.42,15,4,19,0.00
2013-3-25,60,47,43,11,4,2,18,17,14,29.84,29.70,7,3,11,0.00
2013-3-30,77,64,54,27,22,16,31,20,13,29.76,29.53,0,0,0,0.00
2013-3-31,84,63,48,32,23,14,40,24,11,29.86,29.39,0,0,0,0.00